Terminal Aerodrome Forecast
Issued by NWS

Home | Current Version | Previous Version | Text Only | Print | Product List | Glossary On
Versions: 1 2 3 4 5 6 7 8 9 10 11 12 13
718
FTUS45 KABQ 271727
TAFGUP
TAF
KGUP 271727Z 2718/2818 VRB06KT P6SM SKC
     FM272000 02012KT P6SM SCT100
     FM280200 04006KT P6SM FEW120
     FM280600 VRB06KT P6SM SKC
     FM281600 26006KT P6SM SKC=

USA.gov is the U.S. government's official web portal to all federal, state and local government web resources and services.